createdAt,value
2018-10-01T00:00:32.156Z,97621.23
2018-10-01T00:01:37.940Z,97623.05
2018-10-01T00:02:42.610Z,97624.77
2018-10-01T00:03:48.202Z,97627.80
2018-10-01T00:04:53.074Z,97628.36
2018-10-01T00:05:57.942Z,97628.59
2018-10-01T00:07:02.876Z,97630.58
2018-10-01T00:08:08.029Z,97632.20
2018-10-01T00:09:13.036Z,97626.33
2018-10-01T00:10:19.985Z,97626.55
2018-10-01T00:11:24.776Z,97631.78
2018-10-01T00:12:29.242Z,97630.35
2018-10-01T00:13:34.146Z,97629.41
2018-10-01T00:14:39.210Z,97626.17
2018-10-01T00:15:43.801Z,97631.67
2018-10-01T00:16:48.392Z,97632.15
2018-10-01T00:17:53.017Z,97630.46
2018-10-01T00:18:57.931Z,97632.15
2018-10-01T00:20:09.864Z,97632.50
2018-10-01T00:21:19.492Z,97629.55
2018-10-01T00:22:31.413Z,97633.27
2018-10-01T00:23:37.031Z,97634.92
2018-10-01T00:24:41.618Z,97635.22
2018-10-01T00:25:46.069Z,97637.41
2018-10-01T00:26:50.972Z,97637.04
2018-10-01T00:27:55.554Z,97634.81
2018-10-01T00:29:00.165Z,97633.30
2018-10-01T00:30:08.521Z,97638.70
2018-10-01T00:31:13.099Z,97640.75
2018-10-01T00:32:17.677Z,97641.13
2018-10-01T00:33:22.485Z,97642.51
2018-10-01T00:34:27.238Z,97647.56
2018-10-01T00:35:31.878Z,97644.27
2018-10-01T00:36:36.561Z,97641.26
2018-10-01T00:37:41.074Z,97640.45
2018-10-01T00:38:45.808Z,97634.59
2018-10-01T00:39:50.975Z,97641.16
2018-10-01T00:40:55.398Z,97639.51
2018-10-01T00:41:59.856Z,97634.48
2018-10-01T00:43:04.286Z,97630.59
2018-10-01T00:44:08.708Z,97630.31
2018-10-01T00:45:13.117Z,97631.55
2018-10-01T00:46:17.808Z,97627.00
2018-10-01T00:47:22.218Z,97628.55
2018-10-01T00:48:26.625Z,97626.31
2018-10-01T00:49:31.050Z,97626.10
2018-10-01T00:50:35.487Z,97624.57
2018-10-01T00:51:39.956Z,97627.12
2018-10-01T00:52:44.701Z,97626.81
2018-10-01T00:53:49.118Z,97631.30
2018-10-01T00:54:53.539Z,97626.94
2018-10-01T00:55:57.965Z,97626.06
2018-10-01T00:57:02.378Z,97626.94
2018-10-01T00:58:06.817Z,97629.55
2018-10-01T00:59:11.538Z,97632.49
2018-10-01T01:00:15.985Z,97629.73
2018-10-01T01:01:20.494Z,97633.27
2018-10-01T01:02:27.276Z,97633.71
2018-10-01T01:03:32.355Z,97630.00
2018-10-01T01:04:37.459Z,97630.72
2018-10-01T01:05:41.896Z,97626.17
2018-10-01T01:06:47.894Z,97625.98
2018-10-01T01:07:52.824Z,97630.03
2018-10-01T01:08:57.239Z,97628.63
2018-10-01T01:10:01.939Z,97626.64
2018-10-01T01:11:06.387Z,97626.11
2018-10-01T01:12:11.261Z,97627.17
2018-10-01T01:13:17.575Z,97627.30
2018-10-01T01:14:22.067Z,97627.45
2018-10-01T01:15:26.537Z,97621.52
2018-10-01T01:16:30.999Z,97629.13
2018-10-01T01:17:35.966Z,97628.13
2018-10-01T01:18:40.818Z,97623.34
2018-10-01T01:19:45.253Z,97629.69
2018-10-01T01:20:49.803Z,97627.19
2018-10-01T01:21:54.314Z,97625.21
2018-10-01T01:22:58.754Z,97626.58
2018-10-01T01:24:03.190Z,97632.69
2018-10-01T01:25:08.097Z,97630.77
2018-10-01T01:26:12.560Z,97625.51
2018-10-01T01:27:17.020Z,97633.23
2018-10-01T01:28:21.451Z,97635.36
2018-10-01T01:29:27.444Z,97632.55
2018-10-01T01:30:31.908Z,97625.39
2018-10-01T01:31:36.806Z,97629.48
2018-10-01T01:32:41.199Z,97628.70
2018-10-01T01:33:45.614Z,97624.51
2018-10-01T01:34:50.065Z,97617.28
2018-10-01T01:35:54.457Z,97620.96
2018-10-01T01:36:58.917Z,97620.36
2018-10-01T01:38:03.674Z,97621.23
2018-10-01T01:39:09.176Z,97622.54
2018-10-01T01:40:13.591Z,97633.67
2018-10-01T01:41:18.033Z,97637.78
2018-10-01T01:42:22.489Z,97637.92
2018-10-01T01:43:26.917Z,97638.09
2018-10-01T01:44:31.768Z,97635.43
2018-10-01T01:45:36.661Z,97634.36
2018-10-01T01:46:41.072Z,97633.93
2018-10-01T01:47:45.471Z,97633.12
2018-10-01T01:48:50.661Z,97630.00
2018-10-01T01:49:55.083Z,97631.68
2018-10-01T01:50:59.878Z,97631.70
2018-10-01T01:52:04.397Z,97627.06
2018-10-01T01:53:10.409Z,97625.08
2018-10-01T01:54:14.827Z,97627.30
2018-10-01T01:55:19.281Z,97630.41
2018-10-01T01:56:23.746Z,97623.80
2018-10-01T01:57:28.601Z,97623.70
2018-10-01T01:58:33.087Z,97627.14
2018-10-01T01:59:37.518Z,97625.14
2018-10-01T02:00:41.947Z,97620.03
2018-10-01T02:01:46.362Z,97620.31
2018-10-01T02:02:50.881Z,97621.75
2018-10-01T02:03:55.651Z,97620.31
2018-10-01T02:05:00.084Z,97615.33
2018-10-01T02:06:04.556Z,97614.73
2018-10-01T02:07:08.978Z,97616.97
2018-10-01T02:08:13.405Z,97610.54
2018-10-01T02:09:17.811Z,97606.47
2018-10-01T02:10:22.827Z,97603.36
2018-10-01T02:11:27.269Z,97605.86
2018-10-01T02:12:31.691Z,97605.92
2018-10-01T02:13:36.137Z,97606.44
2018-10-01T02:14:40.566Z,97607.16
2018-10-01T02:15:45.068Z,97605.11
2018-10-01T02:16:50.637Z,97613.83
2018-10-01T02:17:55.102Z,97611.11
2018-10-01T02:18:59.536Z,97612.11
2018-10-01T02:20:03.986Z,97611.34
2018-10-01T02:21:08.447Z,97606.91
2018-10-01T02:22:12.901Z,97610.98
2018-10-01T02:23:21.346Z,97610.65
2018-10-01T02:24:28.711Z,97615.28
2018-10-01T02:25:33.153Z,97615.47
2018-10-01T02:26:37.577Z,97614.86
2018-10-01T02:27:41.998Z,97608.84
2018-10-01T02:28:46.442Z,97611.22
2018-10-01T02:29:51.416Z,97611.97
2018-10-01T02:30:55.949Z,97620.31
2018-10-01T02:32:00.410Z,97620.97
2018-10-01T02:33:06.942Z,97620.77
2018-10-01T02:34:11.386Z,97623.40
2018-10-01T02:35:15.835Z,97619.04
2018-10-01T02:36:20.654Z,97623.27
2018-10-01T02:37:25.090Z,97616.41
2018-10-01T02:38:30.110Z,97608.70
2018-10-01T02:39:34.561Z,97605.66
2018-10-01T02:40:38.992Z,97607.51
2018-10-01T02:41:43.416Z,97610.20
2018-10-01T02:42:48.357Z,97604.66
2018-10-01T02:43:52.795Z,97608.58
2018-10-01T02:44:57.249Z,97606.91
2018-10-01T02:46:02.637Z,97597.42
2018-10-01T02:47:07.086Z,97603.65
2018-10-01T02:48:11.502Z,97606.95
2018-10-01T02:49:16.375Z,97600.41
2018-10-01T02:50:20.806Z,97601.00
2018-10-01T02:51:25.260Z,97601.17
2018-10-01T02:52:34.773Z,97605.34
2018-10-01T02:53:44.388Z,97607.47
2018-10-01T02:54:48.802Z,97607.03
2018-10-01T02:55:53.731Z,97612.01
2018-10-01T02:56:58.154Z,97605.66
2018-10-01T02:58:02.550Z,97607.37
2018-10-01T02:59:08.849Z,97611.88
2018-10-01T03:00:13.258Z,97613.46
2018-10-01T03:01:17.675Z,97607.23
2018-10-01T03:02:23.394Z,97613.98
2018-10-01T03:03:27.840Z,97616.66
2018-10-01T03:04:32.269Z,97622.83
2018-10-01T03:05:36.718Z,97619.95
2018-10-01T03:06:41.223Z,97613.53
2018-10-01T03:07:45.626Z,97604.02
2018-10-01T03:08:50.519Z,97602.67
2018-10-01T03:09:55.022Z,97600.74
2018-10-01T03:10:59.439Z,97598.77
2018-10-01T03:12:03.923Z,97594.39
2018-10-01T03:13:09.355Z,97594.02
2018-10-01T03:14:13.766Z,97595.52
2018-10-01T03:15:18.809Z,97598.25
2018-10-01T03:16:23.246Z,97601.86
2018-10-01T03:17:27.697Z,97597.89
2018-10-01T03:18:32.117Z,97598.02
2018-10-01T03:19:36.561Z,97604.05
2018-10-01T03:20:40.979Z,97602.42
2018-10-01T03:21:45.738Z,97606.91
2018-10-01T03:22:50.173Z,97608.97
2018-10-01T03:23:54.622Z,97605.30
2018-10-01T03:24:59.190Z,97607.23
2018-10-01T03:26:03.663Z,97608.55
2018-10-01T03:27:08.451Z,97607.86
2018-10-01T03:28:12.911Z,97611.04
2018-10-01T03:29:17.320Z,97613.09
2018-10-01T03:30:21.775Z,97610.60
2018-10-01T03:31:26.255Z,97606.80
2018-10-01T03:32:30.883Z,97606.67
2018-10-01T03:33:35.921Z,97611.61
2018-10-01T03:34:40.342Z,97609.98
2018-10-01T03:35:44.800Z,97609.73
2018-10-01T03:36:49.243Z,97610.10
2018-10-01T03:37:53.684Z,97620.19
2018-10-01T03:38:58.135Z,97611.89
2018-10-01T03:40:02.998Z,97610.18
2018-10-01T03:41:07.405Z,97610.59
2018-10-01T03:42:11.835Z,97615.54
2018-10-01T03:43:16.318Z,97620.75
2018-10-01T03:44:20.762Z,97624.13
2018-10-01T03:45:25.655Z,97623.25
2018-10-01T03:46:30.462Z,97625.30
2018-10-01T03:47:34.878Z,97625.67
2018-10-01T03:48:39.280Z,97626.39
2018-10-01T03:49:43.690Z,97627.88
2018-10-01T03:50:48.127Z,97625.63
2018-10-01T03:51:52.592Z,97626.61
2018-10-01T03:52:57.394Z,97629.72
2018-10-01T03:54:01.968Z,97624.59
2018-10-01T03:55:07.400Z,97627.33
2018-10-01T03:56:11.899Z,97630.33
2018-10-01T03:57:16.361Z,97628.54
2018-10-01T03:58:20.787Z,97625.76
2018-10-01T03:59:25.659Z,97622.75
2018-10-01T04:00:30.075Z,97626.55
2018-10-01T04:01:35.336Z,97629.05
2018-10-01T04:02:39.870Z,97631.60
2018-10-01T04:03:44.681Z,97635.52
2018-10-01T04:04:49.260Z,97631.05
2018-10-01T04:05:54.372Z,97632.48
2018-10-01T04:06:59.603Z,97633.29
2018-10-01T04:08:04.020Z,97629.55
2018-10-01T04:09:09.247Z,97632.78
2018-10-01T04:10:13.712Z,97631.41
2018-10-01T04:11:18.170Z,97632.14
2018-10-01T04:12:23.012Z,97636.63
2018-10-01T04:13:27.671Z,97637.31
2018-10-01T04:14:33.416Z,97637.67
2018-10-01T04:15:37.883Z,97635.14
2018-10-01T04:16:42.434Z,97636.52
2018-10-01T04:17:47.190Z,97638.47
2018-10-01T04:18:51.986Z,97636.39
2018-10-01T04:19:56.442Z,97633.85
2018-10-01T04:21:00.909Z,97635.98
2018-10-01T04:22:05.423Z,97640.65
2018-10-01T04:23:10.703Z,97642.83
2018-10-01T04:24:16.232Z,97643.72
2018-10-01T04:25:22.258Z,97638.16
2018-10-01T04:26:26.728Z,97643.33
2018-10-01T04:27:31.201Z,97643.70
2018-10-01T04:28:35.722Z,97641.71
2018-10-01T04:29:40.251Z,97643.52
2018-10-01T04:30:44.690Z,97646.33
2018-10-01T04:31:49.738Z,97650.24
2018-10-01T04:32:54.200Z,97645.06
2018-10-01T04:33:58.768Z,97651.55
2018-10-01T04:35:03.250Z,97649.39
2018-10-01T04:36:07.791Z,97644.53
2018-10-01T04:37:13.200Z,97657.30
2018-10-01T04:38:18.141Z,97651.73
2018-10-01T04:39:22.611Z,97659.66
2018-10-01T04:40:27.273Z,97657.10
2018-10-01T04:41:32.001Z,97661.09
2018-10-01T04:42:36.445Z,97655.54
2018-10-01T04:43:40.939Z,97655.75
2018-10-01T04:44:45.790Z,97660.98
2018-10-01T04:45:50.253Z,97655.93
2018-10-01T04:46:54.822Z,97649.06
2018-10-01T04:47:59.237Z,97658.34
2018-10-01T04:49:03.742Z,97655.04
2018-10-01T04:50:08.246Z,97662.09
2018-10-01T04:51:13.446Z,97658.31
2018-10-01T04:52:19.609Z,97662.52
2018-10-01T04:53:24.913Z,97661.77
2018-10-01T04:54:30.574Z,97663.52
2018-10-01T04:55:38.706Z,97662.91
2018-10-01T04:56:43.891Z,97663.41
2018-10-01T04:57:48.718Z,97664.22
2018-10-01T04:58:53.232Z,97666.72
2018-10-01T04:59:57.705Z,97665.53
2018-10-01T05:01:02.166Z,97664.66
2018-10-01T05:02:06.679Z,97667.02
2018-10-01T05:03:11.694Z,97666.52
2018-10-01T05:04:16.401Z,97665.65
2018-10-01T05:05:20.867Z,97666.02
2018-10-01T05:06:26.106Z,97667.70
2018-10-01T05:07:30.560Z,97667.33
2018-10-01T05:08:35.083Z,97669.27
2018-10-01T05:09:41.438Z,97673.69
2018-10-01T05:10:46.675Z,97668.25
2018-10-01T05:11:51.161Z,97667.95
2018-10-01T05:12:55.685Z,97675.77
2018-10-01T05:14:00.943Z,97667.58
2018-10-01T05:15:05.427Z,97675.51
2018-10-01T05:16:10.441Z,97668.59
2018-10-01T05:17:15.412Z,97670.56
2018-10-01T05:18:19.878Z,97673.99
2018-10-01T05:19:24.344Z,97672.69
2018-10-01T05:20:28.825Z,97674.23
2018-10-01T05:21:33.282Z,97670.03
2018-10-01T05:22:38.252Z,97671.90
2018-10-01T05:23:42.740Z,97673.70
2018-10-01T05:24:47.277Z,97669.59
2018-10-01T05:25:52.247Z,97674.58
2018-10-01T05:26:56.761Z,97671.31
2018-10-01T05:28:01.222Z,97673.33
2018-10-01T05:29:05.648Z,97676.64
2018-10-01T05:30:10.101Z,97674.43
2018-10-01T05:31:14.874Z,97677.92
2018-10-01T05:45:38.680Z,97695.56
2018-10-01T05:46:43.404Z,97694.63
2018-10-01T05:47:48.099Z,97693.81
2018-10-01T05:48:52.558Z,97693.44
2018-10-01T05:49:57.040Z,97692.51
2018-10-01T05:51:01.824Z,97693.13
2018-10-01T05:52:06.375Z,97693.13
2018-10-01T05:53:11.194Z,97690.02
2018-10-01T05:54:16.397Z,97700.20
2018-10-01T05:55:20.851Z,97695.96
2018-10-01T05:56:25.858Z,97696.70
2018-10-01T05:57:30.389Z,97705.06
2018-10-01T05:58:35.167Z,97702.13
2018-10-01T05:59:39.662Z,97705.50
2018-10-01T06:00:44.239Z,97707.06
2018-10-01T06:01:48.875Z,97712.73
2018-10-01T06:02:54.262Z,97711.73
2018-10-01T06:03:58.779Z,97711.51
2018-10-01T06:05:03.965Z,97714.28
2018-10-01T06:06:08.517Z,97714.08
2018-10-01T06:07:13.003Z,97717.33
2018-10-01T06:08:18.239Z,97725.88
2018-10-01T06:09:23.522Z,97722.07
2018-10-01T06:10:29.474Z,97722.73
2018-10-01T06:11:35.553Z,97724.25
2018-10-01T06:12:40.129Z,97725.50
2018-10-01T06:13:45.235Z,97726.50
2018-10-01T06:14:49.713Z,97731.10
2018-10-01T06:15:54.700Z,97727.20
2018-10-01T06:17:00.961Z,97727.50
2018-10-01T06:18:05.469Z,97729.25
2018-10-01T06:19:10.169Z,97731.55
2018-10-01T06:20:14.694Z,97736.48
2018-10-01T06:21:19.204Z,97737.91
2018-10-01T06:22:24.573Z,97739.52
2018-10-01T06:23:29.246Z,97741.82
2018-10-01T06:24:33.816Z,97747.45
2018-10-01T06:25:38.343Z,97745.77
2018-10-01T06:26:43.637Z,97753.36
2018-10-01T06:27:48.236Z,97750.93
2018-10-01T06:28:53.192Z,97747.08
2018-10-01T06:29:57.826Z,97742.47
2018-10-01T06:31:02.374Z,97746.95
2018-10-01T06:32:07.093Z,97747.76
2018-10-01T06:33:11.926Z,97740.09
2018-10-01T06:34:16.865Z,97742.59
2018-10-01T06:35:21.650Z,97740.20
2018-10-01T06:36:27.097Z,97747.03
2018-10-01T06:37:31.928Z,97740.98
2018-10-01T06:38:37.074Z,97742.66
2018-10-01T06:39:41.534Z,97749.77
2018-10-01T06:40:47.036Z,97747.97
2018-10-01T06:41:52.231Z,97749.39
2018-10-01T06:42:56.811Z,97747.37
2018-10-01T06:44:01.887Z,97747.34
2018-10-01T06:45:06.449Z,97754.64
2018-10-01T06:46:12.255Z,97749.89
2018-10-01T06:47:16.762Z,97751.33
2018-10-01T06:48:21.739Z,97753.70
2018-10-01T06:49:27.522Z,97758.80
2018-10-01T06:50:32.053Z,97758.11
2018-10-01T06:51:37.350Z,97760.76
2018-10-01T06:52:41.890Z,97771.60
2018-10-01T06:53:47.242Z,97765.91
2018-10-01T06:54:51.821Z,97768.18
2018-10-01T06:55:56.305Z,97768.86
2018-10-01T06:57:00.925Z,97766.23
2018-10-01T06:58:05.591Z,97768.39
2018-10-01T06:59:11.870Z,97768.16
2018-10-01T07:00:17.678Z,97767.52
2018-10-01T07:01:23.192Z,97773.25
2018-10-01T07:02:27.928Z,97773.52
2018-10-01T07:03:32.574Z,97769.64
2018-10-01T07:04:38.097Z,97775.38
2018-10-01T07:05:43.412Z,97775.75
2018-10-01T07:06:48.639Z,97777.77
2018-10-01T07:07:53.914Z,97786.77
2018-10-01T07:08:58.721Z,97786.91
2018-10-01T07:10:03.336Z,97791.52
2018-10-01T07:11:12.737Z,97793.39
2018-10-01T07:12:17.810Z,97790.58
2018-10-01T07:13:22.972Z,97786.84
2018-10-01T07:14:28.130Z,97792.01
2018-10-01T07:15:33.216Z,97792.26
2018-10-01T07:16:38.397Z,97796.28
2018-10-01T07:17:43.654Z,97797.93
2018-10-01T07:18:51.632Z,97798.83
2018-10-01T07:19:58.086Z,97793.16
2018-10-01T07:21:03.489Z,97792.14
2018-10-01T07:22:08.854Z,97797.52
2018-10-01T07:23:13.464Z,97794.59
2018-10-01T07:24:19.152Z,97801.11
2018-10-01T07:25:24.887Z,97798.84
2018-10-01T07:26:29.917Z,97801.52
2018-10-01T07:27:34.427Z,97802.16
2018-10-01T07:28:42.352Z,97803.33
2018-10-01T07:29:48.691Z,97802.78
2018-10-01T07:30:58.365Z,97807.08
2018-10-01T07:32:04.728Z,97804.43
2018-10-01T07:33:09.497Z,97805.61
2018-10-01T07:34:14.153Z,97813.70
2018-10-01T07:35:19.420Z,97808.99
2018-10-01T07:36:24.634Z,97810.02
2018-10-01T07:37:29.500Z,97807.59
2018-10-01T07:38:34.428Z,97809.33
2018-10-01T07:39:38.945Z,97808.55
2018-10-01T07:40:45.384Z,97815.25
2018-10-01T07:47:22.727Z,97815.22
2018-10-01T07:48:29.430Z,97825.58
2018-10-01T07:49:35.501Z,97822.97
2018-10-01T07:50:40.232Z,97828.45
2018-10-01T07:51:44.778Z,97833.21
2018-10-01T07:52:50.261Z,97833.39
2018-10-01T07:53:55.798Z,97836.80
2018-10-01T07:55:00.499Z,97834.56
2018-10-01T07:56:06.015Z,97837.67
2018-10-01T07:57:10.710Z,97831.84
2018-10-01T07:58:15.381Z,97837.93
2018-10-01T07:59:20.008Z,97831.73
2018-10-01T08:00:25.787Z,97832.75
2018-10-01T08:01:31.583Z,97830.39
2018-10-01T08:02:36.552Z,97832.06
2018-10-01T08:03:42.023Z,97835.66
2018-10-01T08:04:46.617Z,97837.52
2018-10-01T08:05:51.165Z,97840.86
2018-10-01T08:06:57.437Z,97843.36
2018-10-01T08:08:02.095Z,97841.59
2018-10-01T08:09:07.909Z,97850.63
2018-10-01T08:10:13.348Z,97852.54
2018-10-01T08:11:19.140Z,97856.09
2018-10-01T08:12:24.912Z,97855.30
2018-10-01T08:13:29.858Z,97849.89
2018-10-01T08:14:34.666Z,97850.00
2018-10-01T08:15:39.291Z,97849.98
2018-10-01T08:16:43.906Z,97848.72
2018-10-01T08:17:48.833Z,97851.17
2018-10-01T08:18:53.650Z,97853.94
2018-10-01T08:19:59.161Z,97856.44
2018-10-01T08:21:03.636Z,97856.47
2018-10-01T08:22:09.432Z,97858.69
2018-10-01T08:23:14.604Z,97860.29
2018-10-01T08:24:19.562Z,97865.21
2018-10-01T08:25:25.408Z,97871.49
2018-10-01T08:26:30.443Z,97872.23
2018-10-01T08:27:35.026Z,97871.48
2018-10-01T08:28:44.701Z,97870.67
2018-10-01T08:29:49.494Z,97874.15
2018-10-01T08:30:54.236Z,97877.62
2018-10-01T08:32:00.413Z,97874.85
2018-10-01T08:33:06.808Z,97869.17
2018-10-01T08:34:12.597Z,97869.85
2018-10-01T08:35:17.914Z,97878.02
2018-10-01T08:36:22.604Z,97875.80
2018-10-01T08:37:30.068Z,97869.50
2018-10-01T08:38:34.733Z,97865.27
2018-10-01T08:39:41.663Z,97865.44
2018-10-01T08:40:47.533Z,97868.28
2018-10-01T08:41:52.961Z,97866.11
2018-10-01T08:42:59.590Z,97869.77
2018-10-01T08:44:04.360Z,97873.28
2018-10-01T08:45:10.531Z,97870.05
2018-10-01T08:46:19.381Z,97876.30
2018-10-01T08:47:27.056Z,97874.74
2018-10-01T08:48:34.648Z,97882.69
2018-10-01T08:50:03.613Z,97875.13
2018-10-01T08:51:15.972Z,97879.00
2018-10-01T08:52:35.924Z,97875.96
2018-10-01T08:53:46.771Z,97880.83
2018-10-01T08:54:51.985Z,97876.61
2018-10-01T08:55:56.803Z,97879.38
2018-10-01T08:57:02.812Z,97878.81
2018-10-01T08:58:07.375Z,97882.23
2018-10-01T08:59:14.287Z,97879.23
2018-10-01T09:00:19.054Z,97881.77
2018-10-01T09:01:23.504Z,97879.30
2018-10-01T09:02:28.045Z,97877.46
2018-10-01T09:03:33.121Z,97878.09
2018-10-01T09:04:38.318Z,97880.70
2018-10-01T09:05:43.187Z,97886.78
2018-10-01T09:06:47.693Z,97872.30
2018-10-01T09:07:52.729Z,97882.17
2018-10-01T09:08:58.337Z,97882.77
2018-10-01T09:10:02.826Z,97880.24
2018-10-01T09:11:08.199Z,97880.50
2018-10-01T09:12:13.053Z,97871.12
2018-10-01T09:13:17.737Z,97877.39
2018-10-01T09:14:22.648Z,97882.02
2018-10-01T09:15:27.338Z,97892.67
2018-10-01T09:16:32.780Z,97887.98
2018-10-01T09:17:37.650Z,97892.25
2018-10-01T09:18:43.242Z,97896.38
2018-10-01T09:19:48.871Z,97891.07
2018-10-01T09:20:54.527Z,97890.09
2018-10-01T09:22:02.844Z,97895.03
2018-10-01T09:23:09.676Z,97890.61
2018-10-01T09:24:15.592Z,97897.73
2018-10-01T09:25:21.634Z,97900.44
2018-10-01T09:26:27.873Z,97895.73
2018-10-01T09:27:33.446Z,97894.95
2018-10-01T09:28:38.257Z,97896.84
2018-10-01T09:29:43.417Z,97896.95
2018-10-01T09:30:48.454Z,97894.95
2018-10-01T09:31:55.364Z,97888.44
2018-10-01T09:33:00.365Z,97890.65
2018-10-01T09:34:06.114Z,97875.98
2018-10-01T09:35:12.610Z,97880.73
2018-10-01T09:36:19.349Z,97879.19
2018-10-01T09:37:24.202Z,97884.56
2018-10-01T09:38:29.883Z,97885.84
2018-10-01T09:39:34.876Z,97882.50
2018-10-01T09:40:41.651Z,97890.50
2018-10-01T09:41:49.836Z,97897.05
2018-10-01T09:42:56.026Z,97896.48
2018-10-01T09:44:03.227Z,97901.67
2018-10-01T09:45:09.663Z,97901.03
2018-10-01T09:46:19.434Z,97897.89
2018-10-01T09:47:25.516Z,97902.45
2018-10-01T09:48:30.859Z,97910.41
2018-10-01T09:49:35.842Z,97903.61
2018-10-01T09:50:41.374Z,97907.23
2018-10-01T09:51:47.117Z,97903.34
2018-10-01T09:52:52.637Z,97902.67
2018-10-01T09:53:58.664Z,97906.68
2018-10-01T09:55:04.309Z,97916.11
2018-10-01T09:56:11.078Z,97916.62
2018-10-01T09:57:17.207Z,97914.97
2018-10-01T09:58:24.649Z,97918.58
2018-10-01T09:59:30.713Z,97912.17
2018-10-01T10:00:44.212Z,97909.80
2018-10-01T10:01:49.524Z,97904.25
2018-10-01T10:02:59.358Z,97907.26
2018-10-01T10:04:04.614Z,97909.49
2018-10-01T10:05:10.845Z,97904.80
2018-10-01T10:06:16.465Z,97913.92
2018-10-01T10:07:22.431Z,97906.12
2018-10-01T10:08:27.850Z,97910.50
2018-10-01T10:09:34.741Z,97902.36
2018-10-01T10:10:41.376Z,97903.46
2018-10-01T10:11:48.493Z,97908.13
2018-10-01T10:12:54.338Z,97915.94
2018-10-01T10:13:59.303Z,97914.92
2018-10-01T10:15:04.039Z,97916.21
2018-10-01T10:16:08.669Z,97921.87
2018-10-01T10:17:14.640Z,97926.03
2018-10-01T10:18:21.677Z,97934.47
2018-10-01T10:19:28.268Z,97934.02
2018-10-01T10:20:33.287Z,97931.78
2018-10-01T10:21:38.062Z,97927.65
2018-10-01T10:22:43.502Z,97927.83
2018-10-01T10:23:49.027Z,97926.85
2018-10-01T10:24:54.534Z,97927.11
2018-10-01T10:25:59.507Z,97921.18
2018-10-01T10:27:05.161Z,97930.16
2018-10-01T10:28:10.926Z,97927.22
2018-10-01T10:29:17.421Z,97923.15
2018-10-01T10:30:22.199Z,97929.63
2018-10-01T10:31:29.629Z,97929.79
2018-10-01T10:44:42.244Z,97941.41
2018-10-01T10:45:47.958Z,97939.69
2018-10-01T10:46:54.738Z,97936.27
2018-10-01T10:48:04.372Z,97933.19
2018-10-01T10:49:10.572Z,97935.87
2018-10-01T10:50:15.893Z,97936.67
2018-10-01T10:51:23.448Z,97936.17
2018-10-01T10:52:29.288Z,97938.14
2018-10-01T10:53:35.255Z,97937.46
2018-10-01T10:54:40.689Z,97934.70
2018-10-01T10:55:46.566Z,97931.94
2018-10-01T10:56:52.656Z,97931.65
2018-10-01T10:57:57.348Z,97926.63
2018-10-01T10:59:03.955Z,97931.02
2018-10-01T11:01:20.222Z,97918.76
2018-10-01T11:02:28.048Z,97920.99
2018-10-01T11:03:33.689Z,97925.63
2018-10-01T11:04:39.428Z,97918.27
2018-10-01T11:05:44.090Z,97917.13
2018-10-01T11:06:49.199Z,97915.45
2018-10-01T11:07:55.883Z,97916.15
2018-10-01T11:09:01.862Z,97907.48
2018-10-01T11:10:07.402Z,97913.80
2018-10-01T11:11:13.441Z,97911.56
2018-10-01T11:12:20.997Z,97913.33
2018-10-01T11:13:26.831Z,97915.81
2018-10-01T11:14:33.572Z,97909.48
2018-10-01T11:15:39.533Z,97907.83
2018-10-01T11:16:45.582Z,97906.59
2018-10-01T11:17:51.690Z,97905.83
2018-10-01T11:18:57.867Z,97906.77
2018-10-01T11:20:03.962Z,97901.86
2018-10-01T11:21:10.316Z,97899.50
2018-10-01T11:22:16.099Z,97907.63
2018-10-01T11:23:21.204Z,97897.40
2018-10-01T11:24:26.424Z,97905.59
2018-10-01T11:25:38.735Z,97903.08
2018-10-01T11:26:44.775Z,97903.05
2018-10-01T11:27:50.377Z,97898.30
2018-10-01T11:28:56.680Z,97897.90
2018-10-01T11:30:04.515Z,97898.67
2018-10-01T11:31:09.265Z,97899.73
2018-10-01T11:32:15.881Z,97893.31
2018-10-01T11:33:23.180Z,97900.97
2018-10-01T11:34:30.916Z,97908.55
2018-10-01T11:35:37.151Z,97909.30
2018-10-01T11:36:42.651Z,97906.31
2018-10-01T11:37:47.907Z,97907.86
2018-10-01T11:38:55.267Z,97907.62
2018-10-01T11:39:59.970Z,97907.86
2018-10-01T11:41:06.675Z,97912.77
2018-10-01T11:42:17.591Z,97906.19
2018-10-01T11:43:25.663Z,97908.04
2018-10-01T11:44:31.010Z,97902.04
2018-10-01T11:45:37.378Z,97908.39
2018-10-01T11:46:43.340Z,97900.26
2018-10-01T11:47:52.098Z,97902.91
2018-10-01T11:48:59.769Z,97901.41
2018-10-01T11:50:05.242Z,97904.63
2018-10-01T11:51:09.943Z,97906.81
2018-10-01T11:52:16.497Z,97907.70
2018-10-01T11:53:27.708Z,97906.41
2018-10-01T11:54:36.120Z,97899.81
2018-10-01T11:55:41.685Z,97883.58
2018-10-01T11:56:49.381Z,97897.40
2018-10-01T11:57:54.866Z,97898.20
2018-10-01T11:59:04.112Z,97888.22
2018-10-01T12:00:11.266Z,97892.28
2018-10-01T12:01:18.725Z,97885.27
2018-10-01T12:02:24.388Z,97870.88
2018-10-01T12:03:30.704Z,97891.92
2018-10-01T12:04:39.677Z,97900.04
2018-10-01T12:05:53.399Z,97888.93
2018-10-01T12:06:59.150Z,97884.09
2018-10-01T12:09:20.381Z,97913.64
2018-10-01T12:10:25.877Z,97895.81
2018-10-01T12:11:33.778Z,97906.97
2018-10-01T12:12:50.350Z,97915.34
2018-10-01T12:14:03.376Z,97917.91
2018-10-01T12:15:10.604Z,97920.58
2018-10-01T12:16:28.660Z,97912.36
2018-10-01T12:17:33.906Z,97919.73
2018-10-01T12:18:43.590Z,97914.80
2018-10-01T12:19:49.774Z,97922.24
2018-10-01T12:20:57.031Z,97919.61
2018-10-01T12:22:07.059Z,97906.70
2018-10-01T12:23:14.474Z,97897.06
2018-10-01T12:24:20.164Z,97910.73
2018-10-01T12:25:31.148Z,97899.53
2018-10-01T12:26:37.219Z,97895.70
2018-10-01T12:27:43.923Z,97901.03
2018-10-01T12:28:49.507Z,97902.08
2018-10-01T12:29:57.555Z,97903.97
2018-10-01T12:31:09.860Z,97893.88
2018-10-01T12:32:15.953Z,97874.02
2018-10-01T12:33:31.334Z,97896.45
2018-10-01T12:36:09.797Z,97891.97
2018-10-01T12:37:15.081Z,97891.87
2018-10-01T16:45:01.664Z,98112.78
2018-10-01T16:47:19.360Z,98110.15
2018-10-01T16:48:24.824Z,98112.01
2018-10-01T16:49:30.349Z,98110.86
2018-10-01T16:50:35.148Z,98125.78
2018-10-01T16:51:41.723Z,98114.15
2018-10-01T16:52:53.306Z,98118.63
2018-10-01T16:53:59.297Z,98122.84
2018-10-01T16:55:07.651Z,98124.53
2018-10-01T16:56:17.150Z,98125.34
2018-10-01T16:57:32.418Z,98125.80
2018-10-01T16:58:40.437Z,98130.38
2018-10-01T16:59:46.763Z,98130.81
2018-10-01T17:00:53.684Z,98130.97
2018-10-01T17:01:59.237Z,98130.72
2018-10-01T17:03:05.981Z,98131.23
2018-10-01T17:04:13.490Z,98136.91
2018-10-01T17:05:19.274Z,98145.47
2018-10-01T17:06:34.513Z,98135.58
2018-10-01T17:07:40.008Z,98144.22
2018-10-01T17:08:44.491Z,98142.38
2018-10-01T17:09:51.722Z,98153.44
2018-10-01T17:12:11.572Z,98155.53
2018-10-01T17:13:18.518Z,98154.80
2018-10-01T17:14:25.324Z,98159.52
2018-10-01T17:15:33.824Z,98166.90
2018-10-01T17:16:39.485Z,98168.22
2018-10-01T17:17:46.048Z,98164.97
2018-10-01T17:18:51.212Z,98169.01
2018-10-01T17:19:57.055Z,98172.40
2018-10-01T17:21:03.827Z,98168.70
2018-10-01T17:22:08.655Z,98169.36
2018-10-01T17:23:18.012Z,98177.17
2018-10-01T17:24:22.563Z,98174.60
2018-10-01T17:25:31.150Z,98178.16
2018-10-01T17:26:37.662Z,98172.78
2018-10-01T17:27:44.450Z,98177.28
2018-10-01T17:28:50.631Z,98168.03
2018-10-01T17:29:58.640Z,98185.82
2018-10-01T17:31:07.265Z,98181.25
2018-10-01T17:32:13.568Z,98181.55
2018-10-01T17:33:21.316Z,98179.93
2018-10-01T17:34:34.091Z,98192.33